Petersburg, IL

6:19 PM CDT on October 01, 2014 (GMT -0500)
Jacksonville Municipal | Change Station
CLOSE
Current Station
Airport
Location: Jacksonville,
Elevation: 623 ft
Nearby Weather Stations

Elev 623 ft 39.77 °N, 90.24 °W | Updated 24 minutes ago

Overcast
Overcast
69 °F
Feels Like 69 °F
N
8
Wind Variable Wind from East

Today
High -- | Low -- °F
--% Chance of Precip.
Yesterday
High -- | Low -- °F
Precip. -- in
6:55 AM 6:41 PM
First Quarter, 52% visible
Pressure 29.82 in
Visibility 7.0 miles
Clouds Scattered Clouds 11000 ft
Dew Point 66 °F
Humidity 91%
Rainfall 0.00 in
Snow Depth Not available.
UV 0 out of 12
Pollen 3.80 out of 12
Ozone Good
PM2.5 Moderate
Flu Activity Not available.
METAR KIJX 012255Z AUTO 08007KT 7SM -RA SCT110 21/19 A2982 RMK AO2 LTG DSNT N S AND NW T02070191

More Conditions Fewer Conditions

Pressure 29.82 in
Visibility 7.0 miles
Clouds Scattered Clouds 11000 ft
Dew Point 66 °F
Humidity 91%
Rainfall 0.00 in
Snow Depth Not available.
UV 0 out of 12
Pollen 3.80 out of 12
Ozone Good
PM2.5 Moderate
Flu Activity Not available.
METAR KIJX 012255Z AUTO 08007KT 7SM -RA SCT110 21/19 A2982 RMK AO2 LTG DSNT N S AND NW T02070191

More Conditions Fewer Conditions

10-Day Weather Forecast

Almanac

Astronomy

Oct. 01, 2014 Rise Set
Actual Time 6:55 AM CDT 6:41 PM CDT
Civil Twilight 6:28 AM CDT 7:08 PM CDT
Nautical Twilight 5:57 AM CDT 7:39 PM CDT
Astronomical Twilight 5:25 AM CDT 8:11 PM CDT
Moon 1:56 PM CDT No Moon Set
Length of Visible Light 12h 39m
Length of Day
11h 45m
Tomorrow will be 2m 36s shorter.
First Quarter, 52% of the Moon is Illuminated
Today
First Quarter
Oct 8
Full
Oct 15
Last Quarter
Oct 23
New
Oct 30
First Quarter

Today's Extremes

State Highs State Lows

Community

WunderPhotos

Upload Photos

1,758,077 photos uploaded!

WunderBlogs® & News

By Dr. Jeff Masters
Director of Meteorology, Weather Underground
By Kari Strenfel
Meteorologist, Weather Underground
By Christopher C. Burt
Weather Historian, Weather Underground
October 1, 2014
October 1, 2014
October 1, 2014

Nearby

Air Quality

  Air Quality AQ Index Pollutant
Yesterday Good
PM2.5
Yesterday Good
OZONE
Current Moderate
PM2.5
Current Good
OZONE
Wednesday Moderate
PM2.5
Thursday Moderate
PM2.5
Friday Good
PM2.5
Saturday Good
PM2.5

Snow Depth

Station Depth Elevation
No new snow has been reported.

Earthquake Activity

City Distance Mag. Time & Date
No recent earthquake activity has been reported nearby.
Minimum magnitude displayed is 2.5.

Coastal Water Temperatures

Place Temperature
No Stations Reporting

Nearby Weather Stations